Time;durP1;ratioP1;P1;durP2;ratioP2;P2;SDS_P1;SDS_P2;PMS_P1;PMS_P2;Temp;Humidity;BMP_temperature;BMP_pressure;BME280_temperature;BME280_humidity;BME280_pressure;Samples;Min_cycle;Max_cycle;Signal;HPM_P1;HPM_P2
2021/10/19 00:04:37;;;;;;;0.60;0.60;;;17.80;99.90;;;;;;20345273;29;20691;-69
2021/10/19 00:14:41;;;;;;;0.20;0.00;;;17.80;99.90;;;;;;20346344;29;20229;-69
2021/10/19 00:24:46;;;;;;;0.20;0.10;;;17.60;99.90;;;;;;20345868;29;20207;-69
2021/10/19 00:34:50;;;;;;;0.20;0.00;;;17.40;99.90;;;;;;20345746;29;20655;-69
2021/10/19 00:44:55;;;;;;;0.20;0.10;;;17.30;99.90;;;;;;20344095;29;20425;-69
2021/10/19 00:54:59;;;;;;;0.20;0.00;;;17.20;99.90;;;;;;20343001;29;20238;-69
2021/10/19 01:05:05;;;;;;;0.57;0.57;;;17.20;99.90;;;;;;20342787;29;20230;-68
2021/10/19 01:15:11;;;;;;;0.73;0.53;;;17.30;99.90;;;;;;20339291;29;20232;-68
2021/10/19 01:25:19;;;;;;;1.07;1.03;;;17.00;99.90;;;;;;20341445;29;20202;-69
2021/10/19 01:35:31;;;;;;;0.30;0.27;;;17.00;99.90;;;;;;20338478;29;20226;-70
2021/10/19 01:45:36;;;;;;;0.70;0.43;;;17.10;99.90;;;;;;20338558;29;20206;-69
2021/10/19 01:55:41;;;;;;;0.53;0.53;;;17.00;99.90;;;;;;20339110;29;20703;-67
2021/10/19 02:05:47;;;;;;;0.40;0.40;;;17.10;99.90;;;;;;20337084;29;20262;-69
2021/10/19 02:15:51;;;;;;;7.77;2.53;;;16.90;99.90;;;;;;20337151;29;20233;-70
2021/10/19 02:25:56;;;;;;;0.20;0.00;;;16.90;99.90;;;;;;20337464;29;20206;-67
2021/10/19 02:35:59;;;;;;;0.47;0.43;;;16.90;99.90;;;;;;20336175;29;20652;-69
2021/10/19 02:46:05;;;;;;;0.30;0.30;;;16.80;99.90;;;;;;20335084;29;20206;-70
2021/10/19 02:56:08;;;;;;;0.73;0.73;;;17.00;99.90;;;;;;20335796;29;20637;-69
2021/10/19 03:06:13;;;;;;;0.23;0.13;;;16.90;99.90;;;;;;20406536;23;20316;-73
2021/10/19 03:16:18;;;;;;;0.20;0.20;;;17.10;99.90;;;;;;20415138;29;20240;-73
2021/10/19 03:26:23;;;;;;;0.20;0.00;;;17.10;99.90;;;;;;20415672;29;20208;-73
2021/10/19 03:36:27;;;;;;;0.20;0.10;;;17.20;99.90;;;;;;20417091;29;20235;-72
2021/10/19 03:46:31;;;;;;;0.67;0.67;;;17.30;99.90;;;;;;20427698;29;20197;-71
2021/10/19 03:56:35;;;;;;;0.20;0.10;;;17.50;99.90;;;;;;20427521;29;20233;-72
2021/10/19 04:06:40;;;;;;;0.77;0.30;;;17.70;99.90;;;;;;20378071;23;20266;-68
2021/10/19 04:16:44;;;;;;;0.43;0.43;;;17.90;99.90;;;;;;20345700;29;20225;-67
2021/10/19 04:26:49;;;;;;;0.20;0.13;;;18.40;99.90;;;;;;20345297;29;20612;-67
2021/10/19 04:36:53;;;;;;;0.47;0.47;;;18.30;99.90;;;;;;20344497;29;20591;-68
2021/10/19 04:46:59;;;;;;;0.20;0.10;;;18.10;99.90;;;;;;20344281;29;20257;-68
2021/10/19 04:57:03;;;;;;;0.40;0.40;;;18.00;99.90;;;;;;20359820;29;20309;-69
2021/10/19 05:07:08;;;;;;;1.50;0.50;;;18.10;99.90;;;;;;20340293;29;20264;-68
2021/10/19 05:17:12;;;;;;;0.20;0.10;;;18.00;99.90;;;;;;20348822;29;20253;-67
2021/10/19 05:27:17;;;;;;;0.40;0.40;;;17.80;99.90;;;;;;20341473;29;20202;-65
2021/10/19 05:37:21;;;;;;;0.50;0.33;;;17.90;99.90;;;;;;20339260;29;20229;-67
2021/10/19 05:47:26;;;;;;;0.33;0.17;;;17.90;99.90;;;;;;20337230;29;20205;-68
2021/10/19 05:57:29;;;;;;;1.83;1.17;;;17.90;99.90;;;;;;20334087;29;20237;-65
2021/10/19 06:07:35;;;;;;;0.20;0.10;;;17.90;99.90;;;;;;20329651;29;20615;-68
2021/10/19 06:17:38;;;;;;;0.40;0.40;;;17.90;99.90;;;;;;20332779;29;20721;-70
2021/10/19 06:27:43;;;;;;;0.30;0.30;;;17.80;99.90;;;;;;20335321;29;20236;-67
2021/10/19 06:37:47;;;;;;;0.73;0.73;;;17.90;99.90;;;;;;20334848;29;20696;-68
2021/10/19 06:47:56;;;;;;;0.23;0.17;;;17.90;99.90;;;;;;20311805;29;20191;-68
2021/10/19 06:58:00;;;;;;;10.00;3.33;;;18.10;99.90;;;;;;20317737;29;20317;-66
2021/10/19 07:08:07;;;;;;;4.20;2.63;;;18.50;99.90;;;;;;20330869;29;20294;-68
2021/10/19 07:18:10;;;;;;;7.47;3.97;;;18.60;99.90;;;;;;20346414;29;20592;-68
2021/10/19 07:28:15;;;;;;;16.13;7.20;;;18.90;99.90;;;;;;20346232;29;20216;-68
2021/10/19 07:38:19;;;;;;;5.07;3.60;;;19.20;99.90;;;;;;20346479;29;20330;-68
2021/10/19 07:48:24;;;;;;;8.10;5.67;;;19.10;99.90;;;;;;20347107;29;20285;-69
2021/10/19 07:58:27;;;;;;;3.30;2.53;;;19.30;99.90;;;;;;20345990;29;20336;-68
2021/10/19 08:08:34;;;;;;;8.70;5.27;;;19.60;99.90;;;;;;20363002;29;20234;-68
2021/10/19 08:18:38;;;;;;;15.20;5.10;;;20.40;99.90;;;;;;20350233;29;20305;-68
2021/10/19 08:28:46;;;;;;;4.80;0.98;;;21.10;99.90;;;;;;20340742;29;20202;-67
2021/10/19 08:38:50;;;;;;;1.03;1.03;;;21.40;99.90;;;;;;20280389;29;20223;-68
2021/10/19 08:48:55;;;;;;;0.98;0.88;;;21.10;99.90;;;;;;20342642;29;20285;-68
2021/10/19 08:58:59;;;;;;;3.80;0.93;;;21.20;99.90;;;;;;20338716;29;20277;-68
2021/10/19 09:09:09;;;;;;;0.35;0.28;;;21.50;99.90;;;;;;20340595;29;20245;-68
2021/10/19 09:19:14;;;;;;;1.17;0.30;;;22.00;99.90;;;;;;20338132;29;20325;-67
2021/10/19 09:29:25;;;;;;;2.40;0.35;;;22.20;99.90;;;;;;20338301;29;20220;-68
2021/10/19 09:39:34;;;;;;;0.80;0.80;;;22.30;99.90;;;;;;20334989;29;20261;-69
2021/10/19 09:49:39;;;;;;;4.78;2.22;;;22.30;99.90;;;;;;20335725;29;20293;-67
2021/10/19 09:59:43;;;;;;;1.05;1.02;;;22.90;99.90;;;;;;20336251;29;20631;-69
2021/10/19 10:09:49;;;;;;;2.30;2.10;;;22.80;99.90;;;;;;20335779;29;20281;-67
2021/10/19 10:19:53;;;;;;;1.08;0.70;;;23.50;99.90;;;;;;20332870;29;20372;-68
2021/10/19 10:29:59;;;;;;;1.50;1.05;;;24.20;99.90;;;;;;20333785;29;20289;-69
2021/10/19 10:40:02;;;;;;;2.25;1.30;;;24.70;99.90;;;;;;20333601;29;20218;-69
2021/10/19 10:50:08;;;;;;;1.73;1.27;;;24.90;99.90;;;;;;20342579;29;20658;-69
2021/10/19 11:00:14;;;;;;;3.08;0.98;;;25.40;99.90;;;;;;20349856;29;20499;-70
2021/10/19 11:10:21;;;;;;;1.33;0.98;;;25.40;99.90;;;;;;20349929;29;20209;-70
2021/10/19 11:20:27;;;;;;;0.75;0.73;;;25.50;99.90;;;;;;20355266;29;20297;-71
2021/10/19 11:30:35;;;;;;;3.53;2.03;;;25.80;99.90;;;;;;20359960;29;20229;-70
2021/10/19 11:40:39;;;;;;;2.50;1.77;;;26.00;99.90;;;;;;20330366;29;20763;-69
2021/10/19 11:50:44;;;;;;;52.33;19.13;;;26.40;99.90;;;;;;20270951;29;20444;-69
2021/10/19 12:00:52;;;;;;;1.27;1.20;;;26.80;99.90;;;;;;20343509;29;20336;-69
2021/10/19 12:10:57;;;;;;;0.55;0.50;;;27.40;99.90;;;;;;20345554;29;20236;-69
2021/10/19 12:21:04;;;;;;;1.80;1.40;;;27.60;99.90;;;;;;20343459;29;20317;-70
2021/10/19 12:31:09;;;;;;;1.20;0.90;;;27.40;99.90;;;;;;20338828;29;20206;-69
2021/10/19 12:41:15;;;;;;;12.93;2.10;;;27.80;99.90;;;;;;20314822;29;20241;-69
2021/10/19 12:51:23;;;;;;;1.98;1.02;;;28.40;99.90;;;;;;20270234;29;20230;-69
2021/10/19 13:01:27;;;;;;;0.88;0.88;;;28.60;99.90;;;;;;20341642;29;20276;-69
2021/10/19 13:11:32;;;;;;;0.70;0.70;;;28.30;99.90;;;;;;20341468;29;20668;-68
2021/10/19 13:21:36;;;;;;;0.80;0.68;;;27.40;99.90;;;;;;20339013;29;20236;-67
2021/10/19 13:31:41;;;;;;;0.63;0.30;;;27.70;99.90;;;;;;20338867;29;20209;-66
2021/10/19 13:41:47;;;;;;;1.13;0.52;;;27.40;99.90;;;;;;20314072;29;20321;-67
2021/10/19 13:51:52;;;;;;;1.30;0.75;;;28.50;99.90;;;;;;20271084;29;20212;-68
2021/10/19 14:01:56;;;;;;;2.25;2.08;;;28.20;99.90;;;;;;20336419;29;20249;-67
2021/10/19 14:12:02;;;;;;;6.22;2.38;;;27.70;99.90;;;;;;20336741;29;20198;-67
2021/10/19 14:22:08;;;;;;;0.40;0.32;;;27.80;99.90;;;;;;20335816;29;20234;-69
2021/10/19 14:32:13;;;;;;;1.52;0.80;;;27.60;99.90;;;;;;20347323;29;20202;-67
2021/10/19 14:42:17;;;;;;;0.77;0.73;;;27.70;99.90;;;;;;20302705;29;20226;-68
2021/10/19 14:52:22;;;;;;;1.55;0.77;;;27.20;99.90;;;;;;20270131;29;20206;-68
2021/10/19 15:02:26;;;;;;;0.57;0.57;;;26.90;99.90;;;;;;20334031;29;20275;-70
2021/10/19 15:12:31;;;;;;;3.00;2.88;;;26.60;99.90;;;;;;20331884;29;20254;-68
2021/10/19 15:22:35;;;;;;;6.32;1.00;;;25.20;99.90;;;;;;20332536;29;20253;-68
2021/10/19 15:32:40;;;;;;;0.38;0.28;;;23.80;99.90;;;;;;20334423;29;20285;-69
2021/10/19 15:42:44;;;;;;;0.75;0.55;;;23.30;99.90;;;;;;20313609;29;20539;-68
2021/10/19 15:52:49;;;;;;;1.27;0.70;;;23.20;99.90;;;;;;20283736;29;20194;-67
2021/10/19 16:02:52;;;;;;;0.40;0.20;;;23.00;99.90;;;;;;20343084;29;20515;-69
2021/10/19 16:12:59;;;;;;;0.55;0.52;;;22.80;99.90;;;;;;20342976;29;20572;-69
2021/10/19 16:23:04;;;;;;;0.20;0.10;;;22.80;99.90;;;;;;20341902;29;20630;-69
2021/10/19 16:33:09;;;;;;;0.45;0.38;;;22.70;99.90;;;;;;20341581;29;20693;-68
2021/10/19 16:43:13;;;;;;;1.20;0.60;;;22.70;99.90;;;;;;20303363;29;20338;-69
2021/10/19 16:53:18;;;;;;;0.50;0.45;;;22.50;99.90;;;;;;20284575;29;20222;-68
2021/10/19 17:03:21;;;;;;;1.23;0.43;;;22.40;99.90;;;;;;20338795;29;20234;-69
2021/10/19 17:13:28;;;;;;;0.40;0.35;;;22.20;99.90;;;;;;20339047;29;20202;-69
2021/10/19 17:23:33;;;;;;;0.30;0.30;;;22.10;99.90;;;;;;20338931;29;20236;-69
2021/10/19 17:33:38;;;;;;;0.20;0.10;;;22.00;99.90;;;;;;20335116;29;20198;-70
2021/10/19 17:43:41;;;;;;;1.27;1.20;;;21.90;99.90;;;;;;20335266;29;20218;-70
2021/10/19 17:53:47;;;;;;;2.30;1.17;;;21.80;99.90;;;;;;20330063;29;20577;-69
2021/10/19 18:03:50;;;;;;;0.20;0.10;;;21.80;99.90;;;;;;20341568;29;20293;-70
2021/10/19 18:13:55;;;;;;;0.32;0.30;;;21.90;99.90;;;;;;20336007;29;20378;-70
2021/10/19 18:24:03;;;;;;;0.25;0.25;;;22.00;99.90;;;;;;20336344;29;20731;-68
2021/10/19 18:34:08;;;;;;;0.60;0.50;;;21.80;99.90;;;;;;20334248;29;20284;-69
2021/10/19 18:44:16;;;;;;;0.20;0.10;;;21.70;99.90;;;;;;20333005;29;20194;-70
2021/10/19 18:54:21;;;;;;;0.20;0.10;;;21.50;99.90;;;;;;20332815;29;20305;-69
2021/10/19 19:04:26;;;;;;;0.37;0.27;;;21.40;99.90;;;;;;20332329;29;20766;-69
2021/10/19 19:14:32;;;;;;;0.30;0.30;;;21.30;99.90;;;;;;20346308;29;20684;-69
2021/10/19 19:24:36;;;;;;;0.20;0.20;;;21.20;99.90;;;;;;20345083;29;20207;-71
2021/10/19 19:34:41;;;;;;;0.20;0.00;;;21.10;99.90;;;;;;20268774;29;20237;-68
2021/10/19 19:44:45;;;;;;;0.77;0.77;;;21.00;99.90;;;;;;20270726;29;20208;-68
2021/10/19 19:54:50;;;;;;;0.20;0.20;;;20.90;99.90;;;;;;20303240;29;20257;-69
2021/10/19 20:04:53;;;;;;;0.40;0.20;;;20.80;99.90;;;;;;20346151;29;20236;-69
2021/10/19 20:14:58;;;;;;;0.20;0.10;;;20.80;99.90;;;;;;20343720;29;20226;-68
2021/10/19 20:25:02;;;;;;;0.20;0.17;;;20.60;99.90;;;;;;20339942;29;20325;-67
2021/10/19 20:35:10;;;;;;;0.60;0.57;;;20.40;99.90;;;;;;20343082;29;20264;-68
2021/10/19 20:45:14;;;;;;;0.50;0.40;;;20.50;99.90;;;;;;20341386;29;20245;-68
2021/10/19 20:55:19;;;;;;;1.57;0.30;;;20.60;99.90;;;;;;20338777;29;20222;-68
2021/10/19 21:05:25;;;;;;;1.73;1.40;;;20.70;99.90;;;;;;20341457;29;20348;-67
2021/10/19 21:15:30;;;;;;;2.20;0.50;;;20.70;99.90;;;;;;20342471;29;20320;-68
2021/10/19 21:25:34;;;;;;;0.37;0.37;;;20.80;99.90;;;;;;20358843;29;20201;-69
2021/10/19 21:35:43;;;;;;;1.03;0.50;;;20.80;99.90;;;;;;20338431;29;20222;-69
2021/10/19 21:45:47;;;;;;;0.63;0.63;;;20.80;99.90;;;;;;20339339;29;20293;-69
2021/10/19 21:55:53;;;;;;;0.27;0.27;;;20.60;99.90;;;;;;20337276;29;20332;-69
2021/10/19 22:05:56;;;;;;;0.20;0.10;;;20.40;99.90;;;;;;20335606;29;20229;-70
2021/10/19 22:16:02;;;;;;;0.50;0.50;;;20.20;99.90;;;;;;20259787;29;20711;-69
2021/10/19 22:26:14;;;;;;;0.63;0.40;;;20.10;99.90;;;;;;20259061;29;20226;-69
2021/10/19 22:36:19;;;;;;;0.60;0.60;;;19.80;99.90;;;;;;20258672;29;20589;-68
2021/10/19 22:46:22;;;;;;;0.20;0.20;;;19.70;99.90;;;;;;20258098;29;20209;-68
2021/10/19 22:56:27;;;;;;;1.43;1.33;;;19.00;99.90;;;;;;20303602;29;20766;-69
2021/10/19 23:06:31;;;;;;;0.30;0.30;;;18.80;99.90;;;;;;20336305;29;20225;-67
2021/10/19 23:16:36;;;;;;;0.83;0.70;;;18.60;99.90;;;;;;20335564;29;20234;-69
2021/10/19 23:26:39;;;;;;;0.50;0.40;;;18.70;99.90;;;;;;20335196;29;20208;-68
2021/10/19 23:36:44;;;;;;;0.43;0.30;;;18.70;99.90;;;;;;20332996;29;20256;-68
2021/10/19 23:46:48;;;;;;;0.50;0.50;;;18.70;99.90;;;;;;20334446;29;20216;-68
2021/10/19 23:56:53;;;;;;;2.00;0.30;;;18.90;99.90;;;;;;20340197;29;20250;-68
